sensor_id;sensor_type;location;lat;lon;timestamp;pressure;altitude;pressure_sealevel;temperature;humidity
53550;BME280;67273;52.914;-0.982;2023-04-09T00:01:12;102209.03;;;18.46;42.63
53550;BME280;67273;52.914;-0.982;2023-04-09T00:03:38;102209.03;;;18.46;42.66
53550;BME280;67273;52.914;-0.982;2023-04-09T00:06:05;102209.03;;;18.46;42.59
53550;BME280;67273;52.914;-0.982;2023-04-09T00:08:30;102201.91;;;18.45;42.60
53550;BME280;67273;52.914;-0.982;2023-04-09T00:10:57;102205.66;;;18.43;42.53
53550;BME280;67273;52.914;-0.982;2023-04-09T00:13:23;102200.22;;;18.43;42.61
53550;BME280;67273;52.914;-0.982;2023-04-09T00:15:49;102193.94;;;18.43;42.62
53550;BME280;67273;52.914;-0.982;2023-04-09T00:18:16;102196.66;;;18.43;42.61
53550;BME280;67273;52.914;-0.982;2023-04-09T00:20:42;102196.88;;;18.41;42.56
53550;BME280;67273;52.914;-0.982;2023-04-09T00:23:08;102196.88;;;18.41;42.67
53550;BME280;67273;52.914;-0.982;2023-04-09T00:25:34;102188.06;;;18.39;42.62
53550;BME280;67273;52.914;-0.982;2023-04-09T00:28:00;102189.75;;;18.40;42.57
53550;BME280;67273;52.914;-0.982;2023-04-09T00:30:27;102184.31;;;18.40;42.44
53550;BME280;67273;52.914;-0.982;2023-04-09T00:32:53;102182.63;;;18.39;42.75
53550;BME280;67273;52.914;-0.982;2023-04-09T00:35:20;102186.38;;;18.38;42.57
53550;BME280;67273;52.914;-0.982;2023-04-09T00:37:45;102175.50;;;18.38;42.63
53550;BME280;67273;52.914;-0.982;2023-04-09T00:40:11;102175.50;;;18.38;42.58
53550;BME280;67273;52.914;-0.982;2023-04-09T00:42:37;102168.38;;;18.37;42.64
53550;BME280;67273;52.914;-0.982;2023-04-09T00:45:04;102168.38;;;18.37;42.68
53550;BME280;67273;52.914;-0.982;2023-04-09T00:47:31;102165.03;;;18.35;42.58
53550;BME280;67273;52.914;-0.982;2023-04-09T00:49:57;102162.94;;;18.37;42.68
53550;BME280;67273;52.914;-0.982;2023-04-09T00:52:24;102159.59;;;18.35;42.51
53550;BME280;67273;52.914;-0.982;2023-04-09T00:54:51;102159.59;;;18.35;42.59
53550;BME280;67273;52.914;-0.982;2023-04-09T00:57:17;102152.44;;;18.34;42.69
53550;BME280;67273;52.914;-0.982;2023-04-09T00:59:43;102157.88;;;18.34;42.54
53550;BME280;67273;52.914;-0.982;2023-04-09T01:02:09;102156.19;;;18.33;42.68
53550;BME280;67273;52.914;-0.982;2023-04-09T01:04:35;102158.09;;;18.33;42.51
53550;BME280;67273;52.914;-0.982;2023-04-09T01:07:07;102140.94;;;18.32;42.71
53550;BME280;67273;52.914;-0.982;2023-04-09T01:09:40;102139.03;;;18.33;42.52
53550;BME280;67273;52.914;-0.982;2023-04-09T01:12:11;102136.53;;;18.31;42.72
53550;BME280;67273;52.914;-0.982;2023-04-09T01:14:42;102141.13;;;18.31;42.71
53550;BME280;67273;52.914;-0.982;2023-04-09T01:17:17;102138.59;;;18.29;42.67
53550;BME280;67273;52.914;-0.982;2023-04-09T01:19:50;102134.84;;;18.30;42.66
53550;BME280;67273;52.914;-0.982;2023-04-09T01:22:30;102128.56;;;18.30;42.54
53550;BME280;67273;52.914;-0.982;2023-04-09T01:25:06;102126.88;;;18.29;42.72
53550;BME280;67273;52.914;-0.982;2023-04-09T01:27:52;102118.94;;;18.27;42.60
53550;BME280;67273;52.914;-0.982;2023-04-09T01:30:21;102118.94;;;18.27;42.64
53550;BME280;67273;52.914;-0.982;2023-04-09T01:32:48;102116.00;;;18.29;42.39
53550;BME280;67273;52.914;-0.982;2023-04-09T01:35:14;102116.19;;;18.27;42.75
53550;BME280;67273;52.914;-0.982;2023-04-09T01:37:40;102110.13;;;18.25;42.65
53550;BME280;67273;52.914;-0.982;2023-04-09T01:40:07;102111.78;;;18.26;42.61
53550;BME280;67273;52.914;-0.982;2023-04-09T01:42:34;102110.13;;;18.25;42.73
53550;BME280;67273;52.914;-0.982;2023-04-09T01:45:01;102113.88;;;18.24;42.70
53550;BME280;67273;52.914;-0.982;2023-04-09T01:47:29;102112.84;;;18.25;42.53
53550;BME280;67273;52.914;-0.982;2023-04-09T01:49:55;102107.59;;;18.23;42.99
53550;BME280;67273;52.914;-0.982;2023-04-09T01:52:21;102113.88;;;18.24;42.71
53550;BME280;67273;52.914;-0.982;2023-04-09T01:54:47;102106.78;;;18.23;42.72
53550;BME280;67273;52.914;-0.982;2023-04-09T01:57:12;102108.88;;;18.21;42.83
53550;BME280;67273;52.914;-0.982;2023-04-09T01:59:38;102105.09;;;18.22;42.75
53550;BME280;67273;52.914;-0.982;2023-04-09T02:02:08;102104.25;;;18.21;42.78
53550;BME280;67273;52.914;-0.982;2023-04-09T02:04:40;102097.97;;;18.21;42.78
53550;BME280;67273;52.914;-0.982;2023-04-09T02:07:09;102097.13;;;18.20;42.86
53550;BME280;67273;52.914;-0.982;2023-04-09T02:09:39;102093.56;;;18.20;42.70
53550;BME280;67273;52.914;-0.982;2023-04-09T02:12:11;102094.59;;;18.19;42.65
53550;BME280;67273;52.914;-0.982;2023-04-09T02:14:37;102093.75;;;18.18;42.36
53550;BME280;67273;52.914;-0.982;2023-04-09T02:17:04;102097.31;;;18.19;42.78
53550;BME280;67273;52.914;-0.982;2023-04-09T02:19:41;102092.94;;;18.18;42.68
53550;BME280;67273;52.914;-0.982;2023-04-09T02:22:09;102092.06;;;18.17;42.63
53550;BME280;67273;52.914;-0.982;2023-04-09T02:24:35;102089.59;;;18.16;42.69
53550;BME280;67273;52.914;-0.982;2023-04-09T02:27:01;102084.13;;;18.16;42.72
53550;BME280;67273;52.914;-0.982;2023-04-09T02:29:27;102090.41;;;18.16;42.57
53550;BME280;67273;52.914;-0.982;2023-04-09T02:31:53;102090.41;;;18.16;42.69
53550;BME280;67273;52.914;-0.982;2023-04-09T02:34:22;102093.31;;;18.15;42.72
53550;BME280;67273;52.914;-0.982;2023-04-09T02:36:50;102093.31;;;18.15;42.75
53550;BME280;67273;52.914;-0.982;2023-04-09T02:39:16;102084.34;;;18.14;42.76
53550;BME280;67273;52.914;-0.982;2023-04-09T02:41:42;102094.34;;;18.14;42.71
53550;BME280;67273;52.914;-0.982;2023-04-09T02:44:09;102091.63;;;18.14;42.67
53550;BME280;67273;52.914;-0.982;2023-04-09T02:46:35;102084.53;;;18.13;42.83
53550;BME280;67273;52.914;-0.982;2023-04-09T02:49:02;102083.69;;;18.12;42.77
53550;BME280;67273;52.914;-0.982;2023-04-09T02:51:28;102077.41;;;18.12;42.76
53550;BME280;67273;52.914;-0.982;2023-04-09T02:53:55;102080.13;;;18.12;42.59
53550;BME280;67273;52.914;-0.982;2023-04-09T02:56:21;102076.56;;;18.11;42.71
53550;BME280;67273;52.914;-0.982;2023-04-09T02:58:46;102076.56;;;18.11;42.81
53550;BME280;67273;52.914;-0.982;2023-04-09T03:01:14;102075.75;;;18.11;42.95
53550;BME280;67273;52.914;-0.982;2023-04-09T03:03:40;102073.03;;;18.11;42.67
53550;BME280;67273;52.914;-0.982;2023-04-09T03:06:07;102071.31;;;18.10;42.73
53550;BME280;67273;52.914;-0.982;2023-04-09T03:08:33;102067.78;;;18.09;42.78
53550;BME280;67273;52.914;-0.982;2023-04-09T03:11:00;102069.66;;;18.09;42.77
53550;BME280;67273;52.914;-0.982;2023-04-09T03:13:26;102067.78;;;18.09;42.70
53550;BME280;67273;52.914;-0.982;2023-04-09T03:15:52;102062.34;;;18.09;42.80
53550;BME280;67273;52.914;-0.982;2023-04-09T03:18:18;102061.50;;;18.09;42.85
53550;BME280;67273;52.914;-0.982;2023-04-09T03:20:44;102064.22;;;18.09;42.69
53550;BME280;67273;52.914;-0.982;2023-04-09T03:23:12;102066.94;;;18.09;42.72
53550;BME280;67273;52.914;-0.982;2023-04-09T03:25:42;102060.66;;;18.08;42.65
53550;BME280;67273;52.914;-0.982;2023-04-09T03:28:15;102065.25;;;18.08;42.74
53550;BME280;67273;52.914;-0.982;2023-04-09T03:30:45;102065.25;;;18.08;42.68
53550;BME280;67273;52.914;-0.982;2023-04-09T03:33:12;102060.66;;;18.08;42.66
53550;BME280;67273;52.914;-0.982;2023-04-09T03:35:58;102070.69;;;18.08;42.79
53550;BME280;67273;52.914;-0.982;2023-04-09T03:38:42;102067.97;;;18.08;42.52
53550;BME280;67273;52.914;-0.982;2023-04-09T03:41:20;102069.00;;;18.07;42.68
53550;BME280;67273;52.914;-0.982;2023-04-09T03:43:47;102069.00;;;18.07;42.83
53550;BME280;67273;52.914;-0.982;2023-04-09T03:46:17;102070.06;;;18.05;42.66
53550;BME280;67273;52.914;-0.982;2023-04-09T03:48:46;102074.44;;;18.07;42.52
53550;BME280;67273;52.914;-0.982;2023-04-09T03:51:13;102078.22;;;18.05;42.72
53550;BME280;67273;52.914;-0.982;2023-04-09T03:53:43;102078.22;;;18.05;42.73
53550;BME280;67273;52.914;-0.982;2023-04-09T03:56:09;102075.50;;;18.05;42.71
53550;BME280;67273;52.914;-0.982;2023-04-09T03:58:36;102072.78;;;18.05;42.55
53550;BME280;67273;52.914;-0.982;2023-04-09T04:01:04;102069.22;;;18.05;42.73
53550;BME280;67273;52.914;-0.982;2023-04-09T04:03:38;102065.66;;;18.04;42.62
53550;BME280;67273;52.914;-0.982;2023-04-09T04:06:19;102060.22;;;18.04;42.75
53550;BME280;67273;52.914;-0.982;2023-04-09T04:08:54;102058.34;;;18.05;42.72
53550;BME280;67273;52.914;-0.982;2023-04-09T04:11:25;102065.66;;;18.04;42.69
53550;BME280;67273;52.914;-0.982;2023-04-09T04:13:53;102055.81;;;18.03;42.72
53550;BME280;67273;52.914;-0.982;2023-04-09T04:16:22;102055.81;;;18.03;42.75
53550;BME280;67273;52.914;-0.982;2023-04-09T04:18:48;102058.56;;;18.03;42.78
53550;BME280;67273;52.914;-0.982;2023-04-09T04:21:15;102053.31;;;18.02;42.71
53550;BME280;67273;52.914;-0.982;2023-04-09T04:23:46;102064.00;;;18.03;42.69
53550;BME280;67273;52.914;-0.982;2023-04-09T04:26:18;102062.28;;;18.02;42.66
53550;BME280;67273;52.914;-0.982;2023-04-09T04:28:44;102062.28;;;18.02;42.79
53550;BME280;67273;52.914;-0.982;2023-04-09T04:31:16;102052.47;;;18.01;42.85
53550;BME280;67273;52.914;-0.982;2023-04-09T04:33:44;102056.03;;;18.02;42.68
53550;BME280;67273;52.914;-0.982;2023-04-09T04:36:13;102055.19;;;18.01;42.82
53550;BME280;67273;52.914;-0.982;2023-04-09T04:38:48;102045.34;;;18.00;42.70
53550;BME280;67273;52.914;-0.982;2023-04-09T04:41:20;102047.03;;;18.01;42.73
53550;BME280;67273;52.914;-0.982;2023-04-09T04:43:53;102042.63;;;18.00;42.81
53550;BME280;67273;52.914;-0.982;2023-04-09T04:46:21;102048.06;;;18.00;42.76
53550;BME280;67273;52.914;-0.982;2023-04-09T04:48:48;102042.63;;;18.00;42.76
53550;BME280;67273;52.914;-0.982;2023-04-09T04:51:15;102039.91;;;18.00;42.65
53550;BME280;67273;52.914;-0.982;2023-04-09T04:53:46;102035.50;;;17.99;42.77
53550;BME280;67273;52.914;-0.982;2023-04-09T04:56:14;102030.06;;;17.99;42.76
53550;BME280;67273;52.914;-0.982;2023-04-09T04:58:47;102022.13;;;17.98;42.76
53550;BME280;67273;52.914;-0.982;2023-04-09T05:01:16;102027.56;;;17.98;42.75
53550;BME280;67273;52.914;-0.982;2023-04-09T05:03:42;102020.25;;;17.98;42.71
53550;BME280;67273;52.914;-0.982;2023-04-09T05:06:28;102021.25;;;17.97;42.78
53550;BME280;67273;52.914;-0.982;2023-04-09T05:08:56;102023.97;;;17.97;42.64
53550;BME280;67273;52.914;-0.982;2023-04-09T05:11:24;102022.13;;;17.98;42.77
53550;BME280;67273;52.914;-0.982;2023-04-09T05:13:51;102025.03;;;17.96;42.76
53550;BME280;67273;52.914;-0.982;2023-04-09T05:16:17;102022.31;;;17.96;42.63
53550;BME280;67273;52.914;-0.982;2023-04-09T05:18:45;102020.44;;;17.97;42.77
53550;BME280;67273;52.914;-0.982;2023-04-09T05:21:11;102013.31;;;17.96;42.88
53550;BME280;67273;52.914;-0.982;2023-04-09T05:23:40;102016.03;;;17.96;42.73
53550;BME280;67273;52.914;-0.982;2023-04-09T05:26:07;102014.16;;;17.96;42.58
53550;BME280;67273;52.914;-0.982;2023-04-09T05:28:43;102017.91;;;17.95;42.85
53550;BME280;67273;52.914;-0.982;2023-04-09T05:31:16;102017.91;;;17.95;42.76
53550;BME280;67273;52.914;-0.982;2023-04-09T05:33:50;102025.03;;;17.96;42.79
53550;BME280;67273;52.914;-0.982;2023-04-09T05:36:22;102017.91;;;17.95;42.59
53550;BME280;67273;52.914;-0.982;2023-04-09T05:38:49;102015.19;;;17.95;42.72
53550;BME280;67273;52.914;-0.982;2023-04-09T05:41:15;102013.97;;;17.98;42.83
53550;BME280;67273;52.914;-0.982;2023-04-09T05:43:52;102005.81;;;18.04;42.42
53550;BME280;67273;52.914;-0.982;2023-04-09T05:46:19;101994.16;;;18.11;42.50
53550;BME280;67273;52.914;-0.982;2023-04-09T05:48:45;101995.63;;;18.20;42.37
53550;BME280;67273;52.914;-0.982;2023-04-09T05:51:11;101999.66;;;18.31;42.23
53550;BME280;67273;52.914;-0.982;2023-04-09T05:53:37;101992.78;;;18.41;42.23
53550;BME280;67273;52.914;-0.982;2023-04-09T05:56:13;101990.09;;;18.55;41.88
53550;BME280;67273;52.914;-0.982;2023-04-09T05:58:46;101994.72;;;18.68;41.71
53550;BME280;67273;52.914;-0.982;2023-04-09T06:01:12;101987.81;;;18.78;41.57
53550;BME280;67273;52.914;-0.982;2023-04-09T06:03:38;101981.56;;;18.85;41.40
53550;BME280;67273;52.914;-0.982;2023-04-09T06:06:04;101986.00;;;18.92;41.33
53550;BME280;67273;52.914;-0.982;2023-04-09T06:08:30;101988.94;;;18.97;41.26
53550;BME280;67273;52.914;-0.982;2023-04-09T06:10:57;101989.56;;;18.99;41.39
53550;BME280;67273;52.914;-0.982;2023-04-09T06:13:24;101984.53;;;19.03;41.36
53550;BME280;67273;52.914;-0.982;2023-04-09T06:15:50;101987.88;;;19.05;41.27
53550;BME280;67273;52.914;-0.982;2023-04-09T06:18:16;101991.22;;;19.07;41.49
53550;BME280;67273;52.914;-0.982;2023-04-09T06:20:42;101982.00;;;19.08;41.40
53550;BME280;67273;52.914;-0.982;2023-04-09T06:23:08;101980.94;;;19.09;41.43
53550;BME280;67273;52.914;-0.982;2023-04-09T06:25:34;101982.44;;;19.12;41.39
53550;BME280;67273;52.914;-0.982;2023-04-09T06:28:01;101991.44;;;19.12;41.44
53550;BME280;67273;52.914;-0.982;2023-04-09T06:30:28;101984.28;;;19.11;41.41
53550;BME280;67273;52.914;-0.982;2023-04-09T06:32:56;101991.44;;;19.12;41.18
53550;BME280;67273;52.914;-0.982;2023-04-09T06:35:22;101976.78;;;19.13;41.68
53550;BME280;67273;52.914;-0.982;2023-04-09T06:37:48;101980.13;;;19.15;41.37
53550;BME280;67273;52.914;-0.982;2023-04-09T06:40:13;101963.78;;;19.15;41.39
53550;BME280;67273;52.914;-0.982;2023-04-09T06:42:40;101967.53;;;19.14;41.41
53550;BME280;67273;52.914;-0.982;2023-04-09T06:45:15;101962.91;;;19.15;41.64
53550;BME280;67273;52.914;-0.982;2023-04-09T06:47:42;101961.88;;;19.16;41.55
53550;BME280;67273;52.914;-0.982;2023-04-09T06:50:09;101963.78;;;19.15;41.48
53550;BME280;67273;52.914;-0.982;2023-04-09T06:52:35;101970.88;;;19.16;41.42
53550;BME280;67273;52.914;-0.982;2023-04-09T06:55:00;101966.28;;;19.17;41.40
53550;BME280;67273;52.914;-0.982;2023-04-09T06:57:26;101963.78;;;19.15;41.43
53550;BME280;67273;52.914;-0.982;2023-04-09T06:59:52;101964.59;;;19.16;41.45
53550;BME280;67273;52.914;-0.982;2023-04-09T07:02:18;101965.44;;;19.16;41.48
53550;BME280;67273;52.914;-0.982;2023-04-09T07:04:45;101961.06;;;19.15;41.46
53550;BME280;67273;52.914;-0.982;2023-04-09T07:07:11;101957.88;;;19.18;41.71
53550;BME280;67273;52.914;-0.982;2023-04-09T07:09:37;101957.88;;;19.18;41.84
53550;BME280;67273;52.914;-0.982;2023-04-09T07:12:03;101964.41;;;19.17;41.83
53550;BME280;67273;52.914;-0.982;2023-04-09T07:14:29;101965.44;;;19.16;41.79
53550;BME280;67273;52.914;-0.982;2023-04-09T07:16:55;101966.28;;;19.17;41.75
53550;BME280;67273;52.914;-0.982;2023-04-09T07:19:20;101968.38;;;19.15;41.84
53550;BME280;67273;52.914;-0.982;2023-04-09T07:21:47;101974.69;;;19.15;41.76
53550;BME280;67273;52.914;-0.982;2023-04-09T07:24:13;101973.81;;;19.15;41.79
53550;BME280;67273;52.914;-0.982;2023-04-09T07:26:38;101963.16;;;19.13;41.70
53550;BME280;67273;52.914;-0.982;2023-04-09T07:29:04;101968.59;;;19.13;41.85
53550;BME280;67273;52.914;-0.982;2023-04-09T07:31:30;101964.19;;;19.12;41.73
53550;BME280;67273;52.914;-0.982;2023-04-09T07:33:56;101959.56;;;19.13;41.79
53550;BME280;67273;52.914;-0.982;2023-04-09T07:36:22;101965.03;;;19.13;41.77
53550;BME280;67273;52.914;-0.982;2023-04-09T07:38:49;101970.47;;;19.13;41.66
53550;BME280;67273;52.914;-0.982;2023-04-09T07:41:15;101968.59;;;19.13;41.71
53550;BME280;67273;52.914;-0.982;2023-04-09T07:43:41;101966.91;;;19.12;41.69
53550;BME280;67273;52.914;-0.982;2023-04-09T07:46:07;101964.19;;;19.12;41.67
53550;BME280;67273;52.914;-0.982;2023-04-09T07:48:33;101962.28;;;19.13;41.60
53550;BME280;67273;52.914;-0.982;2023-04-09T07:50:58;101958.75;;;19.12;41.66
53550;BME280;67273;52.914;-0.982;2023-04-09T07:53:24;101964.19;;;19.12;41.61
53550;BME280;67273;52.914;-0.982;2023-04-09T07:55:52;101963.38;;;19.12;41.59
53550;BME280;67273;52.914;-0.982;2023-04-09T07:58:17;101960.84;;;19.10;41.80
53550;BME280;67273;52.914;-0.982;2023-04-09T08:00:43;101954.97;;;19.07;45.04
53550;BME280;67273;52.914;-0.982;2023-04-09T08:03:09;101955.81;;;19.14;45.71
53550;BME280;67273;52.914;-0.982;2023-04-09T08:05:35;101962.09;;;19.14;44.09
53550;BME280;67273;52.914;-0.982;2023-04-09T08:08:03;101965.03;;;19.13;44.50
53550;BME280;67273;52.914;-0.982;2023-04-09T08:10:29;101975.91;;;19.13;43.65
53550;BME280;67273;52.914;-0.982;2023-04-09T08:12:56;101976.78;;;19.13;43.47
53550;BME280;67273;52.914;-0.982;2023-04-09T08:15:22;101974.25;;;19.12;43.26
53550;BME280;67273;52.914;-0.982;2023-04-09T08:17:47;101969.63;;;19.12;43.19
53550;BME280;67273;52.914;-0.982;2023-04-09T08:20:13;101978.84;;;19.11;43.10
53550;BME280;67273;52.914;-0.982;2023-04-09T08:22:41;101966.28;;;19.10;42.95
53550;BME280;67273;52.914;-0.982;2023-04-09T08:25:07;101966.28;;;19.10;42.95
53550;BME280;67273;52.914;-0.982;2023-04-09T08:27:33;101960.84;;;19.10;42.87
53550;BME280;67273;52.914;-0.982;2023-04-09T08:30:02;101959.16;;;19.09;42.91
53550;BME280;67273;52.914;-0.982;2023-04-09T08:32:28;101949.13;;;19.10;42.81
53550;BME280;67273;52.914;-0.982;2023-04-09T08:34:54;101958.31;;;19.09;42.73
53550;BME280;67273;52.914;-0.982;2023-04-09T08:37:19;101968.41;;;19.08;42.67
53550;BME280;67273;52.914;-0.982;2023-04-09T08:39:45;101967.53;;;19.08;42.60
53550;BME280;67273;52.914;-0.982;2023-04-09T08:42:12;101949.53;;;19.07;42.55
53550;BME280;67273;52.914;-0.982;2023-04-09T08:44:39;101961.25;;;19.07;42.44
53550;BME280;67273;52.914;-0.982;2023-04-09T08:47:08;101954.34;;;18.98;42.81
53550;BME280;67273;52.914;-0.982;2023-04-09T08:49:38;101957.50;;;19.02;42.61
53550;BME280;67273;52.914;-0.982;2023-04-09T08:52:04;101953.50;;;19.04;42.61
53550;BME280;67273;52.914;-0.982;2023-04-09T08:54:31;101962.31;;;19.06;42.72
53550;BME280;67273;52.914;-0.982;2023-04-09T08:56:57;101962.53;;;19.05;42.60
53550;BME280;67273;52.914;-0.982;2023-04-09T08:59:23;101960.63;;;19.05;42.66
53550;BME280;67273;52.914;-0.982;2023-04-09T09:01:49;101955.19;;;19.05;42.57
53550;BME280;67273;52.914;-0.982;2023-04-09T09:04:42;101958.13;;;19.04;42.45
53550;BME280;67273;52.914;-0.982;2023-04-09T09:07:08;101960.00;;;19.03;42.46
53550;BME280;67273;52.914;-0.982;2023-04-09T09:09:49;101963.97;;;19.00;42.56
53550;BME280;67273;52.914;-0.982;2023-04-09T09:12:31;101955.81;;;19.00;42.45
53550;BME280;67273;52.914;-0.982;2023-04-09T09:14:58;101954.97;;;19.00;42.45
53550;BME280;67273;52.914;-0.982;2023-04-09T09:17:24;101953.28;;;18.99;42.40
53550;BME280;67273;52.914;-0.982;2023-04-09T09:19:51;101954.97;;;19.00;42.47
53550;BME280;67273;52.914;-0.982;2023-04-09T09:22:17;101953.94;;;19.01;42.05
53550;BME280;67273;52.914;-0.982;2023-04-09T09:24:46;101958.31;;;19.02;42.31
53550;BME280;67273;52.914;-0.982;2023-04-09T09:27:30;101958.53;;;19.00;42.23
53550;BME280;67273;52.914;-0.982;2023-04-09T09:29:56;101954.16;;;18.99;42.23
53550;BME280;67273;52.914;-0.982;2023-04-09T09:32:22;101950.34;;;19.00;42.23
53550;BME280;67273;52.914;-0.982;2023-04-09T09:34:59;101949.53;;;19.00;42.26
53550;BME280;67273;52.914;-0.982;2023-04-09T09:37:26;101946.81;;;19.00;42.19
53550;BME280;67273;52.914;-0.982;2023-04-09T09:39:55;101944.06;;;19.00;42.17
53550;BME280;67273;52.914;-0.982;2023-04-09T09:42:21;101944.06;;;19.00;42.21
53550;BME280;67273;52.914;-0.982;2023-04-09T09:44:46;101938.63;;;19.00;42.16
53550;BME280;67273;52.914;-0.982;2023-04-09T09:47:13;101939.66;;;18.99;42.13
53550;BME280;67273;52.914;-0.982;2023-04-09T09:49:39;101928.78;;;18.99;42.09
53550;BME280;67273;52.914;-0.982;2023-04-09T09:52:08;101905.13;;;18.99;42.13
53550;BME280;67273;52.914;-0.982;2023-04-09T09:54:39;101897.97;;;18.98;42.33
53550;BME280;67273;52.914;-0.982;2023-04-09T09:57:07;101901.53;;;18.99;42.13
53550;BME280;67273;52.914;-0.982;2023-04-09T09:59:36;101900.50;;;19.00;42.14
53550;BME280;67273;52.914;-0.982;2023-04-09T10:02:04;101905.13;;;18.99;42.04
53550;BME280;67273;52.914;-0.982;2023-04-09T10:04:32;101902.41;;;18.99;42.19
53550;BME280;67273;52.914;-0.982;2023-04-09T10:07:00;101881.66;;;18.98;42.09
53550;BME280;67273;52.914;-0.982;2023-04-09T10:09:29;101888.97;;;18.98;42.05
53550;BME280;67273;52.914;-0.982;2023-04-09T10:11:57;101882.47;;;18.99;41.99
53550;BME280;67273;52.914;-0.982;2023-04-09T10:14:24;101880.59;;;18.99;42.09
53550;BME280;67273;52.914;-0.982;2023-04-09T10:16:53;101879.53;;;19.00;42.07
53550;BME280;67273;52.914;-0.982;2023-04-09T10:19:19;101880.59;;;18.99;42.15
53550;BME280;67273;52.914;-0.982;2023-04-09T10:21:54;101871.56;;;18.99;42.17
53550;BME280;67273;52.914;-0.982;2023-04-09T10:24:22;101877.03;;;18.99;42.01
53550;BME280;67273;52.914;-0.982;2023-04-09T10:26:52;101876.19;;;18.98;42.23
53550;BME280;67273;52.914;-0.982;2023-04-09T10:29:26;101868.84;;;18.99;42.13
53550;BME280;67273;52.914;-0.982;2023-04-09T10:31:52;101858.19;;;18.97;42.04
53550;BME280;67273;52.914;-0.982;2023-04-09T10:34:20;101859.03;;;18.98;42.10
53550;BME280;67273;52.914;-0.982;2023-04-09T10:36:50;101856.31;;;18.98;42.09
53550;BME280;67273;52.914;-0.982;2023-04-09T10:39:18;101852.50;;;18.99;41.99
53550;BME280;67273;52.914;-0.982;2023-04-09T10:41:45;101849.78;;;18.99;42.05
53550;BME280;67273;52.914;-0.982;2023-04-09T10:44:21;101841.84;;;18.97;42.05
53550;BME280;67273;52.914;-0.982;2023-04-09T10:46:47;101842.69;;;18.98;42.00
53550;BME280;67273;52.914;-0.982;2023-04-09T10:49:16;101844.34;;;18.99;42.16
53550;BME280;67273;52.914;-0.982;2023-04-09T10:51:47;101835.56;;;18.97;41.99
53550;BME280;67273;52.914;-0.982;2023-04-09T10:54:39;101830.09;;;18.97;42.05
53550;BME280;67273;52.914;-0.982;2023-04-09T10:57:16;101821.94;;;18.97;42.12
53550;BME280;67273;52.914;-0.982;2023-04-09T10:59:45;101813.75;;;18.97;42.04
53550;BME280;67273;52.914;-0.982;2023-04-09T11:05:23;101815.44;;;18.98;42.41
53550;BME280;67273;52.914;-0.982;2023-04-09T11:07:59;101809.59;;;18.94;42.34
53550;BME280;67273;52.914;-0.982;2023-04-09T11:10:27;101802.25;;;18.95;42.29
53550;BME280;67273;52.914;-0.982;2023-04-09T11:12:53;101799.53;;;18.95;42.30
53550;BME280;67273;52.914;-0.982;2023-04-09T11:15:20;101794.09;;;18.95;42.43
53550;BME280;67273;52.914;-0.982;2023-04-09T11:17:47;101779.63;;;18.94;42.49
53550;BME280;67273;52.914;-0.982;2023-04-09T11:20:14;101777.75;;;18.95;42.39
53550;BME280;67273;52.914;-0.982;2023-04-09T11:22:40;101775.03;;;18.95;42.19
53550;BME280;67273;52.914;-0.982;2023-04-09T11:25:07;101768.75;;;18.94;42.24
53550;BME280;67273;52.914;-0.982;2023-04-09T11:27:36;101764.34;;;18.93;42.36
53550;BME280;67273;52.914;-0.982;2023-04-09T11:30:02;101764.34;;;18.93;42.23
53550;BME280;67273;52.914;-0.982;2023-04-09T11:32:30;101761.63;;;18.93;42.38
53550;BME280;67273;52.914;-0.982;2023-04-09T11:34:56;101756.16;;;18.93;42.24
53550;BME280;67273;52.914;-0.982;2023-04-09T11:37:22;101752.63;;;18.93;42.22
53550;BME280;67273;52.914;-0.982;2023-04-09T11:39:48;101747.16;;;18.93;42.22
53550;BME280;67273;52.914;-0.982;2023-04-09T11:42:18;101747.16;;;18.93;42.16
53550;BME280;67273;52.914;-0.982;2023-04-09T11:44:44;101741.72;;;18.93;42.24
53550;BME280;67273;52.914;-0.982;2023-04-09T11:47:11;101740.91;;;18.92;42.37
53550;BME280;67273;52.914;-0.982;2023-04-09T11:49:39;101736.28;;;18.93;42.54
53550;BME280;67273;52.914;-0.982;2023-04-09T11:52:05;101726.41;;;18.92;42.26
53550;BME280;67273;52.914;-0.982;2023-04-09T11:54:31;101729.16;;;18.92;42.38
53550;BME280;67273;52.914;-0.982;2023-04-09T11:56:58;101720.16;;;18.91;42.15
53550;BME280;67273;52.914;-0.982;2023-04-09T11:59:23;101728.31;;;18.91;42.26
53550;BME280;67273;52.914;-0.982;2023-04-09T12:01:49;101718.25;;;18.92;42.12
53550;BME280;67273;52.914;-0.982;2023-04-09T12:04:19;101711.16;;;18.91;42.49
53550;BME280;67273;52.914;-0.982;2023-04-09T12:06:47;101711.97;;;18.91;42.14
53550;BME280;67273;52.914;-0.982;2023-04-09T12:09:13;101716.38;;;18.92;42.11
53550;BME280;67273;52.914;-0.982;2023-04-09T12:11:42;101712.81;;;18.92;42.23
53550;BME280;67273;52.914;-0.982;2023-04-09T12:14:11;101710.09;;;18.92;42.24
53550;BME280;67273;52.914;-0.982;2023-04-09T12:16:37;101708.22;;;18.92;42.20
53550;BME280;67273;52.914;-0.982;2023-04-09T12:19:06;101711.78;;;18.93;42.10
53550;BME280;67273;52.914;-0.982;2023-04-09T12:21:46;101709.03;;;18.93;42.10
53550;BME280;67273;52.914;-0.982;2023-04-09T12:24:12;101706.31;;;18.93;42.12
53550;BME280;67273;52.914;-0.982;2023-04-09T12:26:38;101703.59;;;18.93;42.17
53550;BME280;67273;52.914;-0.982;2023-04-09T12:29:04;101706.31;;;18.93;41.86
53550;BME280;67273;52.914;-0.982;2023-04-09T12:31:30;101698.16;;;18.93;42.10
53550;BME280;67273;52.914;-0.982;2023-04-09T12:33:55;101698.97;;;18.93;42.18
53550;BME280;67273;52.914;-0.982;2023-04-09T12:36:21;101689.78;;;18.94;42.15
53550;BME280;67273;52.914;-0.982;2023-04-09T12:38:49;101682.44;;;18.95;42.16
53550;BME280;67273;52.914;-0.982;2023-04-09T12:41:15;101685.16;;;18.95;42.07
53550;BME280;67273;52.914;-0.982;2023-04-09T12:43:41;101680.53;;;18.95;42.22
53550;BME280;67273;52.914;-0.982;2023-04-09T12:46:11;101673.22;;;18.96;42.22
53550;BME280;67273;52.914;-0.982;2023-04-09T12:48:37;101667.78;;;18.96;42.19